Time;durP1;ratioP1;P1;durP2;ratioP2;P2;SDS_P1;SDS_P2;PMS_P1;PMS_P2;Temp;Humidity;BMP_temperature;BMP_pressure;BME280_temperature;BME280_humidity;BME280_pressure;Samples;Min_cycle;Max_cycle;Signal;HPM_P1;HPM_P2
2022/05/18 00:00:48;;;;;;;29.52;15.18;;;20.50;99.90;;;;;;5074901;28;20422;-74
2022/05/18 00:03:18;;;;;;;27.42;15.63;;;20.50;99.90;;;;;;5081092;28;20031;-74
2022/05/18 00:05:45;;;;;;;29.65;14.63;;;20.60;99.90;;;;;;5095132;28;20059;-73
2022/05/18 00:08:11;;;;;;;22.00;14.48;;;20.10;99.90;;;;;;5095401;28;20060;-73
2022/05/18 00:10:40;;;;;;;21.23;14.45;;;20.10;99.90;;;;;;5095528;28;20115;-73
2022/05/18 00:13:05;;;;;;;22.27;13.48;;;20.00;99.90;;;;;;5094563;28;20032;-73
2022/05/18 00:15:32;;;;;;;22.42;13.80;;;19.90;99.90;;;;;;5093803;28;20028;-73
2022/05/18 00:17:57;;;;;;;19.23;14.20;;;20.10;99.90;;;;;;5093500;28;20052;-73
2022/05/18 00:20:24;;;;;;;27.10;14.80;;;19.80;99.90;;;;;;5094744;28;20070;-74
2022/05/18 00:22:53;;;;;;;27.15;15.52;;;19.90;99.90;;;;;;5094778;28;20489;-73
2022/05/18 00:25:23;;;;;;;24.42;14.52;;;20.10;99.90;;;;;;5093537;28;20039;-73
2022/05/18 00:27:49;;;;;;;25.70;15.10;;;20.20;99.90;;;;;;5094495;28;20036;-74
2022/05/18 00:30:18;;;;;;;19.00;14.27;;;20.30;99.90;;;;;;5094861;28;20036;-74
2022/05/18 00:32:44;;;;;;;24.58;15.35;;;20.10;99.90;;;;;;5093922;28;20113;-73
2022/05/18 00:35:12;;;;;;;29.55;15.02;;;20.10;99.90;;;;;;5094627;28;20082;-74
2022/05/18 00:37:37;;;;;;;21.80;13.77;;;19.80;99.90;;;;;;5094654;28;20408;-73
2022/05/18 00:40:05;;;;;;;28.15;15.18;;;19.60;99.90;;;;;;5094363;28;20035;-73
2022/05/18 00:42:31;;;;;;;28.75;15.55;;;19.60;99.90;;;;;;5093145;28;20469;-74
2022/05/18 00:44:57;;;;;;;20.42;14.93;;;19.90;99.90;;;;;;5094295;28;20085;-73
2022/05/18 00:47:23;;;;;;;27.33;16.45;;;20.00;99.90;;;;;;5083238;28;20107;-74
2022/05/18 00:49:53;;;;;;;26.10;14.13;;;19.90;99.90;;;;;;5074281;28;20428;-73
2022/05/18 00:52:25;;;;;;;24.08;15.18;;;19.80;99.90;;;;;;5073959;28;20115;-73
2022/05/18 00:54:54;;;;;;;25.73;15.68;;;19.80;99.90;;;;;;5072681;28;20445;-73
2022/05/18 00:57:26;;;;;;;22.85;14.93;;;19.70;99.90;;;;;;5073763;28;20040;-73
2022/05/18 01:00:04;;;;;;;29.58;14.65;;;19.70;99.90;;;;;;5073868;28;20063;-73
2022/05/18 01:02:36;;;;;;;33.40;16.92;;;19.80;99.90;;;;;;5072221;28;20028;-73
2022/05/18 01:05:05;;;;;;;23.23;16.15;;;19.70;99.90;;;;;;5092530;28;20093;-73
2022/05/18 01:07:36;;;;;;;33.63;17.10;;;19.60;99.90;;;;;;5092616;28;20040;-74
2022/05/18 01:10:03;;;;;;;25.85;16.00;;;19.80;99.90;;;;;;5093908;28;20093;-73
2022/05/18 01:12:29;;;;;;;24.98;16.42;;;19.80;99.90;;;;;;5093895;28;20070;-73
2022/05/18 01:15:06;;;;;;;26.50;16.70;;;19.80;99.90;;;;;;5093759;28;20051;-73
2022/05/18 01:17:35;;;;;;;35.17;17.00;;;19.90;99.90;;;;;;5093650;28;20059;-73
2022/05/18 01:20:13;;;;;;;26.92;15.63;;;19.80;99.90;;;;;;5093737;28;20020;-73
2022/05/18 01:23:12;;;;;;;38.80;17.65;;;19.70;99.90;;;;;;5093316;28;20051;-73
2022/05/18 01:25:56;;;;;;;25.33;17.38;;;19.70;99.90;;;;;;5094050;28;20031;-73
2022/05/18 01:28:26;;;;;;;30.77;16.73;;;19.70;99.90;;;;;;5093643;28;20474;-73
2022/05/18 01:30:52;;;;;;;32.92;16.38;;;19.70;99.90;;;;;;5091941;28;20105;-73
2022/05/18 01:33:19;;;;;;;27.27;15.95;;;19.60;99.90;;;;;;5091982;28;20149;-73
2022/05/18 01:35:47;;;;;;;23.05;15.85;;;19.60;99.90;;;;;;5093609;28;20392;-73
2022/05/18 01:38:14;;;;;;;31.15;16.30;;;19.70;99.90;;;;;;5093763;28;20067;-73
2022/05/18 01:40:55;;;;;;;32.13;18.25;;;19.80;99.90;;;;;;5093498;28;20027;-73
2022/05/18 01:43:36;;;;;;;34.70;20.65;;;19.40;99.90;;;;;;5093221;28;20063;-73
2022/05/18 01:46:06;;;;;;;38.78;21.08;;;19.20;99.90;;;;;;5092960;28;20472;-73
2022/05/18 01:48:35;;;;;;;40.20;21.50;;;19.30;99.90;;;;;;5074302;28;20029;-73
2022/05/18 01:51:03;;;;;;;33.28;19.35;;;19.40;99.90;;;;;;5072925;28;20115;-73
2022/05/18 01:53:30;;;;;;;34.00;19.75;;;19.40;99.90;;;;;;5071710;28;20036;-73
2022/05/18 01:55:56;;;;;;;32.38;20.30;;;19.20;99.90;;;;;;5072832;28;20056;-73
2022/05/18 01:58:22;;;;;;;37.05;19.85;;;19.40;99.90;;;;;;5073073;28;20063;-73
2022/05/18 02:00:49;;;;;;;34.65;20.58;;;19.50;99.90;;;;;;5072634;28;20522;-73
2022/05/18 02:03:16;;;;;;;31.33;20.05;;;19.50;99.90;;;;;;5077927;28;20464;-73
2022/05/18 02:05:42;;;;;;;31.80;19.02;;;19.70;99.90;;;;;;5092736;28;20079;-73
2022/05/18 02:08:09;;;;;;;34.55;20.38;;;19.60;99.90;;;;;;5091643;28;20024;-73
2022/05/18 02:10:35;;;;;;;31.38;18.85;;;19.60;99.90;;;;;;5074995;28;20024;-73
2022/05/18 02:13:01;;;;;;;35.72;19.25;;;19.80;99.90;;;;;;5091529;28;20040;-73
2022/05/18 02:15:27;;;;;;;36.22;19.13;;;19.90;99.90;;;;;;5092668;28;20028;-73
2022/05/18 02:17:53;;;;;;;34.22;20.67;;;20.00;99.90;;;;;;5092848;28;20025;-73
2022/05/18 02:20:20;;;;;;;32.08;19.98;;;20.10;99.90;;;;;;5092928;28;20482;-73
2022/05/18 02:22:46;;;;;;;27.02;18.73;;;20.20;99.90;;;;;;5093091;28;20030;-73
2022/05/18 02:25:12;;;;;;;32.83;19.30;;;20.40;99.90;;;;;;5090646;28;20448;-73
2022/05/18 02:27:38;;;;;;;36.42;20.00;;;20.40;99.90;;;;;;5092998;28;20059;-74
2022/05/18 02:30:05;;;;;;;27.55;19.33;;;20.30;99.90;;;;;;5091182;28;20055;-73
2022/05/18 02:32:31;;;;;;;25.38;18.38;;;20.30;99.90;;;;;;5080327;28;20090;-73
2022/05/18 02:34:57;;;;;;;32.28;19.17;;;20.40;99.90;;;;;;5073931;28;20024;-73
2022/05/18 02:37:23;;;;;;;32.83;20.15;;;20.30;99.90;;;;;;5076581;28;20392;-73
2022/05/18 02:39:49;;;;;;;27.13;20.42;;;19.90;99.90;;;;;;5076679;28;20066;-74
2022/05/18 02:42:14;;;;;;;34.83;20.45;;;19.90;99.90;;;;;;5076528;28;20021;-73
2022/05/18 02:44:40;;;;;;;30.50;20.42;;;19.90;99.90;;;;;;5076285;28;20021;-73
2022/05/18 02:47:06;;;;;;;41.72;20.70;;;19.90;99.90;;;;;;5083117;28;20472;-73
2022/05/18 02:49:32;;;;;;;31.85;23.13;;;20.20;99.90;;;;;;5096595;28;20028;-73
2022/05/18 02:51:58;;;;;;;42.92;21.45;;;20.10;99.90;;;;;;5096349;28;20401;-73
2022/05/18 02:57:10;;;;;;;29.52;20.90;;;20.00;99.90;;;;;;5096466;28;20040;-73
2022/05/18 02:59:36;;;;;;;30.40;21.95;;;20.20;99.90;;;;;;5096340;28;20024;-73
2022/05/18 03:02:03;;;;;;;40.47;24.52;;;20.20;99.90;;;;;;5096257;28;20031;-73
2022/05/18 03:04:32;;;;;;;36.03;22.95;;;20.20;99.90;;;;;;5096295;28;20028;-73
2022/05/18 03:06:59;;;;;;;38.97;21.58;;;20.30;99.90;;;;;;5096117;28;20394;-73
2022/05/18 03:09:25;;;;;;;33.40;22.85;;;20.40;99.90;;;;;;5096373;28;20028;-73
2022/05/18 03:11:51;;;;;;;31.45;21.27;;;20.30;99.90;;;;;;5096170;28;20028;-73
2022/05/18 03:14:17;;;;;;;32.10;21.42;;;20.30;99.90;;;;;;5095897;28;20028;-73
2022/05/18 03:16:44;;;;;;;29.67;21.70;;;20.20;99.90;;;;;;5096007;28;20468;-73
2022/05/18 03:19:13;;;;;;;34.22;22.23;;;20.20;99.90;;;;;;5096087;28;20024;-73
2022/05/18 03:24:25;;;;;;;32.65;20.95;;;19.90;99.90;;;;;;5096018;28;20028;-73
2022/05/18 03:26:51;;;;;;;30.95;21.88;;;19.90;99.90;;;;;;5095674;28;20024;-72
2022/05/18 03:29:17;;;;;;;35.00;21.90;;;19.80;99.90;;;;;;5095819;28;20383;-72
2022/05/18 03:31:44;;;;;;;33.47;21.25;;;19.70;99.90;;;;;;5095747;28;20186;-72
2022/05/18 03:34:10;;;;;;;35.22;21.90;;;19.70;99.90;;;;;;5095778;28;20020;-72
2022/05/18 03:36:37;;;;;;;36.40;22.40;;;19.50;99.90;;;;;;5095669;28;20493;-72
2022/05/18 03:39:04;;;;;;;36.08;21.63;;;19.50;99.90;;;;;;5094518;28;20028;-72
2022/05/18 03:41:30;;;;;;;34.17;21.13;;;19.50;99.90;;;;;;5095264;28;20066;-73
2022/05/18 03:43:55;;;;;;;35.00;20.80;;;19.40;99.90;;;;;;5095780;28;20433;-72
2022/05/18 03:46:21;;;;;;;41.88;22.77;;;19.50;99.90;;;;;;5094071;28;20404;-72
2022/05/18 03:48:47;;;;;;;39.30;20.35;;;19.60;99.90;;;;;;5075299;28;20381;-72
2022/05/18 03:51:15;;;;;;;34.30;21.20;;;19.50;99.90;;;;;;5074411;28;20028;-73
2022/05/18 03:53:42;;;;;;;38.13;21.33;;;19.20;99.90;;;;;;5075323;28;20119;-72
2022/05/18 03:56:08;;;;;;;29.77;21.50;;;19.30;99.90;;;;;;5075030;28;20454;-72
2022/05/18 03:58:35;;;;;;;32.95;20.73;;;19.40;99.90;;;;;;5075213;28;20024;-73
2022/05/18 04:01:08;;;;;;;36.72;21.20;;;19.10;99.90;;;;;;5073657;28;20066;-72
2022/05/18 04:03:35;;;;;;;38.13;20.65;;;19.00;99.90;;;;;;5083686;28;20024;-72
2022/05/18 04:06:02;;;;;;;40.40;22.58;;;18.80;99.90;;;;;;5095184;28;20483;-73
2022/05/18 04:08:27;;;;;;;34.88;21.20;;;18.90;99.90;;;;;;5095113;28;20047;-72
2022/05/18 04:10:57;;;;;;;33.35;20.77;;;19.10;99.90;;;;;;5094869;28;20027;-73
2022/05/18 04:13:26;;;;;;;41.53;21.98;;;19.00;99.90;;;;;;5094889;28;20457;-72
2022/05/18 04:15:54;;;;;;;32.97;21.75;;;19.20;99.90;;;;;;5095212;28;20491;-73
2022/05/18 04:18:22;;;;;;;33.90;21.58;;;19.30;99.90;;;;;;5094912;28;20089;-73
2022/05/18 04:20:52;;;;;;;38.53;21.42;;;19.50;99.90;;;;;;5095167;28;20052;-73
2022/05/18 04:23:19;;;;;;;36.22;21.90;;;19.80;99.90;;;;;;5094754;28;20111;-73
2022/05/18 04:25:45;;;;;;;31.23;20.27;;;19.60;99.90;;;;;;5094582;28;20042;-73
2022/05/18 04:28:14;;;;;;;32.55;21.60;;;19.60;99.90;;;;;;5093582;28;20426;-72
2022/05/18 04:30:46;;;;;;;32.00;20.70;;;19.80;99.90;;;;;;5094736;28;20050;-73
2022/05/18 04:33:15;;;;;;;32.40;20.50;;;19.90;99.90;;;;;;5093332;28;20036;-73
2022/05/18 04:35:41;;;;;;;31.48;18.33;;;20.20;99.90;;;;;;5094805;28;20032;-73
2022/05/18 04:38:07;;;;;;;30.45;21.27;;;20.20;99.90;;;;;;5094530;28;20073;-72
2022/05/18 04:40:34;;;;;;;38.58;21.45;;;20.20;99.90;;;;;;5094370;28;20092;-72
2022/05/18 04:43:00;;;;;;;39.60;21.40;;;20.30;99.90;;;;;;5093059;28;20423;-72
2022/05/18 04:45:26;;;;;;;29.90;21.27;;;20.10;99.90;;;;;;5094445;28;20027;-72
2022/05/18 04:47:52;;;;;;;36.00;21.63;;;20.30;99.90;;;;;;5079632;28;20036;-72
2022/05/18 04:50:20;;;;;;;28.52;20.23;;;20.40;99.90;;;;;;5074018;28;20103;-72
2022/05/18 04:52:46;;;;;;;30.85;19.27;;;20.30;99.90;;;;;;5074071;28;20037;-72
2022/05/18 04:55:12;;;;;;;31.30;19.15;;;19.90;99.90;;;;;;5073587;28;20027;-72
2022/05/18 04:57:38;;;;;;;29.05;19.02;;;20.10;99.90;;;;;;5073488;28;20081;-72
2022/05/18 05:00:06;;;;;;;25.90;17.02;;;20.00;99.90;;;;;;5073461;28;20025;-72
2022/05/18 05:02:34;;;;;;;32.22;16.20;;;20.10;99.90;;;;;;5073967;28;20086;-72
2022/05/18 05:05:00;;;;;;;30.95;15.18;;;19.90;99.90;;;;;;5092687;28;20047;-72
2022/05/18 05:07:25;;;;;;;22.40;14.80;;;19.80;99.90;;;;;;5094007;28;20044;-72
2022/05/18 05:09:51;;;;;;;24.83;15.02;;;19.60;99.90;;;;;;5093525;28;20036;-72
2022/05/18 05:12:18;;;;;;;26.13;14.23;;;20.00;99.90;;;;;;5093907;28;20032;-73
2022/05/18 05:14:44;;;;;;;25.48;15.85;;;19.70;99.90;;;;;;5092647;28;20063;-73
2022/05/18 05:17:10;;;;;;;25.10;18.77;;;19.70;99.90;;;;;;5093812;28;20480;-73
2022/05/18 05:19:37;;;;;;;32.10;19.70;;;20.20;99.90;;;;;;5092594;28;20043;-73
2022/05/18 05:22:03;;;;;;;32.28;20.85;;;20.50;99.90;;;;;;5091320;28;20106;-73
2022/05/18 05:24:29;;;;;;;33.78;20.40;;;20.40;99.90;;;;;;5106952;28;20571;-73
2022/05/18 05:26:55;;;;;;;29.05;19.50;;;20.20;99.90;;;;;;5096588;28;20024;-73
2022/05/18 05:29:21;;;;;;;43.20;20.02;;;20.20;99.90;;;;;;5109353;28;20380;-73
2022/05/18 05:31:47;;;;;;;32.33;19.13;;;20.40;99.90;;;;;;5101119;28;20387;-73
2022/05/18 05:34:14;;;;;;;31.75;18.23;;;20.10;99.90;;;;;;5101653;28;20020;-73
2022/05/18 05:36:40;;;;;;;25.08;17.83;;;19.80;99.90;;;;;;5108701;28;20024;-73
2022/05/18 05:39:06;;;;;;;27.33;16.25;;;20.00;99.90;;;;;;5094150;28;20055;-73
2022/05/18 05:41:31;;;;;;;27.83;16.45;;;20.10;99.90;;;;;;5107854;28;20020;-73
2022/05/18 05:43:57;;;;;;;29.75;14.23;;;20.10;99.90;;;;;;5102398;28;20020;-72
2022/05/18 05:46:27;;;;;;;20.48;12.32;;;20.10;99.90;;;;;;5099985;28;20028;-73
2022/05/18 05:48:55;;;;;;;20.20;11.68;;;19.90;99.90;;;;;;5109591;28;20073;-73
2022/05/18 05:51:23;;;;;;;20.47;11.07;;;19.70;99.90;;;;;;5096743;28;20110;-73
2022/05/18 05:53:51;;;;;;;18.80;9.88;;;19.60;99.90;;;;;;5105244;28;20489;-73
2022/05/18 05:56:17;;;;;;;15.93;8.88;;;19.60;99.90;;;;;;5100829;28;20111;-73
2022/05/18 05:58:43;;;;;;;11.02;7.45;;;19.50;99.90;;;;;;5108287;28;20582;-74
2022/05/18 06:01:12;;;;;;;18.15;7.95;;;19.50;99.90;;;;;;5096089;28;20122;-73
2022/05/18 06:03:39;;;;;;;10.90;6.10;;;19.50;99.90;;;;;;5109884;28;20031;-73
2022/05/18 06:06:05;;;;;;;15.77;7.22;;;19.40;99.90;;;;;;5101949;28;20023;-73
2022/05/18 06:08:32;;;;;;;10.77;6.47;;;19.70;99.90;;;;;;5093328;28;20543;-74
2022/05/18 06:10:59;;;;;;;8.50;5.57;;;19.60;99.90;;;;;;5108574;28;20028;-73
2022/05/18 06:13:26;;;;;;;16.02;6.57;;;19.40;99.90;;;;;;5097593;28;20126;-73
2022/05/18 06:15:52;;;;;;;14.73;6.20;;;19.50;99.90;;;;;;5104046;28;20103;-73
2022/05/18 06:18:18;;;;;;;11.15;6.13;;;19.60;99.90;;;;;;5104926;28;20035;-73
2022/05/18 06:20:47;;;;;;;10.57;6.20;;;20.00;99.90;;;;;;5077981;28;20080;-73
2022/05/18 06:23:13;;;;;;;13.63;5.72;;;19.90;99.90;;;;;;5104508;28;20084;-72
2022/05/18 06:25:39;;;;;;;11.52;5.68;;;20.00;99.90;;;;;;5105895;28;20032;-73
2022/05/18 06:28:06;;;;;;;8.43;5.10;;;20.10;99.90;;;;;;5102803;28;20023;-73
2022/05/18 06:30:32;;;;;;;14.27;4.82;;;20.20;99.90;;;;;;5096982;28;20028;-75
2022/05/18 06:32:58;;;;;;;9.48;5.10;;;20.10;99.90;;;;;;5108865;28;20043;-74
2022/05/18 06:35:25;;;;;;;8.90;4.13;;;20.00;99.90;;;;;;5096742;28;20023;-72
2022/05/18 06:37:51;;;;;;;14.15;5.03;;;20.00;99.90;;;;;;5104487;28;20032;-72
2022/05/18 06:40:18;;;;;;;7.47;3.90;;;20.20;99.90;;;;;;5104229;28;20029;-72
2022/05/18 06:42:44;;;;;;;7.38;3.78;;;20.50;99.90;;;;;;5096712;28;20043;-72
2022/05/18 06:45:13;;;;;;;8.98;3.50;;;20.80;99.90;;;;;;5109114;28;20020;-70
2022/05/18 06:47:40;;;;;;;7.85;4.30;;;20.60;99.90;;;;;;5091099;28;20012;-73
2022/05/18 06:50:09;;;;;;;5.50;3.38;;;20.50;99.90;;;;;;5071221;28;20031;-73
2022/05/18 06:52:35;;;;;;;8.82;3.40;;;20.30;99.90;;;;;;5071742;28;20039;-72
2022/05/18 06:55:02;;;;;;;14.00;3.25;;;20.50;99.90;;;;;;5072383;28;20032;-72
2022/05/18 06:57:28;;;;;;;7.20;2.53;;;20.70;99.90;;;;;;5081844;28;20016;-72
2022/05/18 06:59:54;;;;;;;5.65;3.17;;;20.90;99.90;;;;;;5092493;28;20024;-73
2022/05/18 07:02:20;;;;;;;7.53;2.75;;;20.80;99.90;;;;;;5091261;28;20396;-74
2022/05/18 07:04:45;;;;;;;5.47;2.20;;;20.60;99.90;;;;;;5092076;28;20025;-73
2022/05/18 07:07:11;;;;;;;4.32;1.85;;;20.70;99.90;;;;;;5092281;28;20039;-74
2022/05/18 07:09:37;;;;;;;10.55;2.58;;;20.70;99.90;;;;;;5084273;28;20025;-73
2022/05/18 07:12:04;;;;;;;5.80;2.17;;;20.60;99.90;;;;;;5084282;28;20042;-73
2022/05/18 07:14:30;;;;;;;7.78;2.22;;;20.70;99.90;;;;;;5105640;28;20070;-73
2022/05/18 07:16:57;;;;;;;9.32;2.50;;;20.90;99.90;;;;;;5101161;28;20024;-73
2022/05/18 07:19:23;;;;;;;4.72;1.83;;;20.80;99.90;;;;;;5098071;28;20043;-73
2022/05/18 07:21:49;;;;;;;7.07;2.67;;;20.80;99.90;;;;;;5109695;28;20023;-73
2022/05/18 07:24:16;;;;;;;13.70;2.17;;;20.70;99.90;;;;;;5100579;28;20020;-74
2022/05/18 07:26:43;;;;;;;29.08;2.92;;;20.70;99.90;;;;;;5104583;28;20388;-73
2022/05/18 07:29:09;;;;;;;4.25;1.92;;;20.70;99.90;;;;;;5107877;28;20023;-73
2022/05/18 07:34:21;;;;;;;13.65;2.03;;;20.90;99.90;;;;;;5086408;28;20039;-73
2022/05/18 07:36:48;;;;;;;4.90;2.17;;;20.80;99.90;;;;;;5106695;28;20024;-73
2022/05/18 07:39:14;;;;;;;6.40;1.80;;;20.90;99.90;;;;;;5109282;28;20487;-74
2022/05/18 07:41:40;;;;;;;6.85;1.90;;;21.00;99.90;;;;;;5098862;28;20059;-74
2022/05/18 07:44:05;;;;;;;4.20;1.88;;;21.20;99.90;;;;;;5111976;28;20048;-74
2022/05/18 07:46:32;;;;;;;6.38;1.55;;;21.20;99.90;;;;;;5094120;28;20060;-74
2022/05/18 07:48:58;;;;;;;5.57;1.38;;;21.20;99.90;;;;;;5094008;28;20024;-74
2022/05/18 07:51:24;;;;;;;4.97;1.50;;;21.60;99.90;;;;;;5094894;28;20039;-74
2022/05/18 07:53:50;;;;;;;5.70;1.60;;;21.60;99.90;;;;;;5095261;28;20039;-74
2022/05/18 07:56:15;;;;;;;4.88;1.52;;;22.10;99.90;;;;;;5094047;28;20038;-74
2022/05/18 07:58:41;;;;;;;0.60;0.60;;;21.90;99.90;;;;;;5095262;28;20093;-74
2022/05/18 08:01:08;;;;;;;3.25;0.75;;;21.50;97.20;;;;;;5095701;28;20047;-74
2022/05/18 08:03:34;;;;;;;4.65;0.90;;;21.60;97.70;;;;;;5094991;28;20102;-74
2022/05/18 08:06:01;;;;;;;2.30;0.80;;;21.50;98.70;;;;;;5095142;28;20040;-74
2022/05/18 08:08:26;;;;;;;3.97;0.80;;;21.70;97.90;;;;;;5093810;28;20464;-74
2022/05/18 08:16:22;;;;;;;1.50;0.90;;;22.10;98.40;;;;;;5095066;28;20024;-74
2022/05/18 08:18:49;;;;;;;4.57;1.25;;;22.30;97.60;;;;;;5094475;28;20063;-74
2022/05/18 08:21:15;;;;;;;2.85;1.15;;;21.90;98.20;;;;;;5093525;28;20507;-74
2022/05/18 08:23:41;;;;;;;3.78;1.00;;;21.60;97.80;;;;;;5092342;28;20088;-73
2022/05/18 08:26:07;;;;;;;3.17;1.48;;;21.50;98.00;;;;;;5107270;28;20032;-74
2022/05/18 08:28:34;;;;;;;1.70;0.88;;;21.60;98.60;;;;;;5098196;27;20020;-75
2022/05/18 08:31:00;;;;;;;7.70;1.10;;;21.90;98.20;;;;;;5110260;28;20039;-74
2022/05/18 08:33:28;;;;;;;5.10;1.45;;;22.20;98.00;;;;;;5100525;28;20395;-74
2022/05/18 08:35:54;;;;;;;4.03;1.00;;;22.30;98.40;;;;;;5103589;28;20027;-74
2022/05/18 08:38:20;;;;;;;3.67;1.10;;;22.40;97.00;;;;;;5108632;28;20032;-74
2022/05/18 08:40:53;;;;;;;2.50;1.17;;;22.20;96.90;;;;;;5097473;28;20028;-74
2022/05/18 08:43:34;;;;;;;3.10;1.02;;;22.40;96.50;;;;;;5108372;28;20042;-74
2022/05/18 08:46:04;;;;;;;1.90;0.73;;;22.40;97.20;;;;;;5105284;28;20126;-74
2022/05/18 08:48:49;;;;;;;2.97;1.08;;;22.20;95.80;;;;;;5111290;28;20035;-74
2022/05/18 08:51:38;;;;;;;2.38;0.70;;;22.40;95.90;;;;;;5084280;28;20023;-73
2022/05/18 08:54:21;;;;;;;1.67;0.63;;;22.20;95.60;;;;;;5101577;28;20051;-74
2022/05/18 08:56:46;;;;;;;4.50;1.00;;;22.30;95.80;;;;;;5110663;28;20063;-74
2022/05/18 08:59:21;;;;;;;2.78;0.80;;;22.70;96.00;;;;;;5098857;28;20077;-73
2022/05/18 09:01:51;;;;;;;1.95;0.93;;;22.80;96.50;;;;;;5102929;28;20036;-74
2022/05/18 09:04:30;;;;;;;3.20;0.80;;;22.70;94.50;;;;;;5107324;28;20066;-74
2022/05/18 09:07:06;;;;;;;0.70;0.50;;;22.40;95.10;;;;;;5096993;28;20036;-74
2022/05/18 09:12:37;;;;;;;3.58;0.80;;;23.30;94.80;;;;;;5109062;28;20036;-74
2022/05/18 09:15:05;;;;;;;4.85;1.42;;;23.90;94.40;;;;;;5080137;28;20024;-75
2022/05/18 09:17:42;;;;;;;5.15;1.23;;;23.90;94.70;;;;;;5106366;28;20035;-74
2022/05/18 09:20:25;;;;;;;3.55;1.05;;;24.00;94.30;;;;;;5104907;28;20464;-74
2022/05/18 09:23:19;;;;;;;5.18;1.25;;;23.90;94.20;;;;;;5096767;28;20448;-73
2022/05/18 09:26:03;;;;;;;4.15;1.25;;;24.20;94.40;;;;;;5092892;28;20085;-73
2022/05/18 09:28:50;;;;;;;1.30;0.85;;;24.20;93.60;;;;;;5098160;27;20034;-74
2022/05/18 09:31:43;;;;;;;4.22;0.90;;;24.00;93.20;;;;;;5083891;28;20027;-74
2022/05/18 09:34:29;;;;;;;6.07;1.40;;;23.80;93.60;;;;;;5099200;28;20400;-74
2022/05/18 09:37:05;;;;;;;4.63;1.27;;;23.70;94.10;;;;;;5084087;28;20053;-74
2022/05/18 09:39:39;;;;;;;5.80;1.85;;;24.00;94.00;;;;;;5087857;28;20055;-74
2022/05/18 09:42:14;;;;;;;4.57;1.00;;;24.40;93.40;;;;;;5100834;28;20092;-74
2022/05/18 09:44:47;;;;;;;4.03;1.52;;;25.00;92.90;;;;;;5108919;28;20072;-74
2022/05/18 09:47:16;;;;;;;3.92;1.17;;;25.20;92.30;;;;;;5097721;28;20391;-74
2022/05/18 09:49:45;;;;;;;4.07;1.25;;;24.20;93.10;;;;;;5102652;28;20016;-74
2022/05/18 09:52:13;;;;;;;5.07;1.40;;;24.10;93.80;;;;;;5105967;28;20027;-74
2022/05/18 09:54:39;;;;;;;3.35;1.20;;;24.00;93.90;;;;;;5096182;28;20533;-74
2022/05/18 09:57:15;;;;;;;4.47;1.20;;;24.10;94.50;;;;;;5108937;28;20731;-75
2022/05/18 09:59:45;;;;;;;3.92;1.25;;;24.10;94.10;;;;;;5101335;28;20024;-74
2022/05/18 10:08:11;;;;;;;3.92;0.95;;;24.90;93.90;;;;;;5100140;28;20036;-74
2022/05/18 10:10:38;;;;;;;2.58;1.10;;;24.30;93.80;;;;;;5101037;28;20388;-74
2022/05/18 10:13:17;;;;;;;7.57;1.30;;;24.70;92.50;;;;;;5109156;28;20047;-74
2022/05/18 10:15:49;;;;;;;3.42;1.10;;;25.50;93.00;;;;;;5081325;28;20024;-74
2022/05/18 10:18:48;;;;;;;3.33;1.27;;;25.00;92.50;;;;;;5103375;28;20036;-74
2022/05/18 10:21:18;;;;;;;5.05;1.20;;;24.60;93.10;;;;;;5085394;28;20101;-74
2022/05/18 10:23:50;;;;;;;3.00;1.05;;;24.70;93.60;;;;;;5072112;28;20046;-73
2022/05/18 10:26:24;;;;;;;1.20;0.70;;;25.10;92.60;;;;;;5072930;28;20024;-73
2022/05/18 10:28:56;;;;;;;2.92;0.95;;;25.20;92.90;;;;;;5070918;28;20032;-72
2022/05/18 10:31:42;;;;;;;3.22;1.48;;;24.90;92.50;;;;;;5082545;28;20024;-74
2022/05/18 10:34:24;;;;;;;4.05;1.27;;;25.40;92.50;;;;;;5092079;28;20064;-74
2022/05/18 10:36:56;;;;;;;5.70;1.58;;;25.60;92.10;;;;;;5090345;28;20388;-74
2022/05/18 10:39:44;;;;;;;3.95;1.27;;;25.20;92.40;;;;;;5072525;28;20050;-75
2022/05/18 10:42:21;;;;;;;3.58;0.90;;;25.60;92.60;;;;;;5072002;28;20116;-74
2022/05/18 10:44:47;;;;;;;1.83;1.00;;;25.70;92.00;;;;;;5071247;28;20035;-75
2022/05/18 10:47:36;;;;;;;4.20;1.40;;;25.60;92.60;;;;;;5079685;28;20473;-74
2022/05/18 10:50:29;;;;;;;2.47;1.35;;;25.40;93.00;;;;;;5091337;28;20034;-74
2022/05/18 10:53:00;;;;;;;4.18;1.60;;;25.70;93.00;;;;;;5092500;28;20036;-75
2022/05/18 10:55:28;;;;;;;3.33;1.63;;;25.70;92.30;;;;;;5091704;28;20028;-74
2022/05/18 10:58:05;;;;;;;3.35;1.52;;;25.20;93.20;;;;;;5095674;28;20035;-74
2022/05/18 11:00:48;;;;;;;5.25;1.50;;;25.70;93.00;;;;;;5096519;28;20106;-74
2022/05/18 11:03:20;;;;;;;7.47;1.27;;;26.00;92.20;;;;;;5096278;28;20483;-74
2022/05/18 11:05:55;;;;;;;3.58;1.42;;;25.90;92.60;;;;;;5096035;28;20039;-74
2022/05/18 11:08:25;;;;;;;3.70;1.30;;;26.60;91.70;;;;;;5096466;28;20043;-74
2022/05/18 11:11:20;;;;;;;2.22;1.20;;;26.70;91.40;;;;;;5095986;28;20067;-75
2022/05/18 11:14:13;;;;;;;5.15;1.35;;;27.10;92.00;;;;;;5096284;28;20441;-75
2022/05/18 11:16:48;;;;;;;5.95;2.25;;;27.20;91.80;;;;;;5094692;28;20469;-74
2022/05/18 11:19:32;;;;;;;7.63;2.75;;;27.40;91.20;;;;;;5096133;28;20032;-74
2022/05/18 11:22:41;;;;;;;4.32;1.85;;;27.50;91.30;;;;;;5095928;28;20085;-74
2022/05/18 11:25:37;;;;;;;10.88;2.60;;;26.80;92.00;;;;;;5056524;28;20020;-75
2022/05/18 11:28:30;;;;;;;6.18;2.00;;;27.20;91.70;;;;;;5073520;28;20036;-75
2022/05/18 11:31:03;;;;;;;3.13;1.90;;;27.10;91.60;;;;;;5073035;28;20036;-75
2022/05/18 11:33:52;;;;;;;5.40;1.67;;;26.90;92.00;;;;;;5075382;28;20040;-75
2022/05/18 11:36:32;;;;;;;9.48;1.48;;;27.70;91.60;;;;;;5075763;28;20024;-75
2022/05/18 11:39:17;;;;;;;3.38;1.58;;;27.90;91.00;;;;;;5075603;28;20101;-75
2022/05/18 11:42:14;;;;;;;5.25;1.83;;;27.90;90.80;;;;;;5075190;28;20032;-74
2022/05/18 11:44:53;;;;;;;4.50;1.83;;;27.50;91.40;;;;;;5075472;28;20050;-75
2022/05/18 11:47:38;;;;;;;6.03;2.00;;;27.30;91.50;;;;;;5083612;28;20423;-75
2022/05/18 11:50:10;;;;;;;4.50;2.33;;;27.90;91.90;;;;;;5095432;28;20118;-75
2022/05/18 11:52:53;;;;;;;5.38;1.90;;;28.60;90.30;;;;;;5095463;28;20081;-75
2022/05/18 11:55:24;;;;;;;6.78;2.35;;;27.80;90.60;;;;;;5093950;28;20054;-75
2022/05/18 11:58:21;;;;;;;6.20;2.05;;;28.00;91.00;;;;;;5095345;28;20056;-75
2022/05/18 12:01:11;;;;;;;6.18;2.13;;;28.90;91.30;;;;;;5095196;28;20052;-75
2022/05/18 12:03:55;;;;;;;9.65;2.03;;;29.40;90.20;;;;;;5095192;28;20483;-75
2022/05/18 12:06:26;;;;;;;10.80;2.63;;;28.80;90.60;;;;;;5095113;28;20039;-75
2022/05/18 12:09:06;;;;;;;8.18;3.10;;;29.00;90.40;;;;;;5094090;28;20048;-75
2022/05/18 12:11:35;;;;;;;7.22;2.80;;;29.20;90.50;;;;;;5095214;28;20039;-75
2022/05/18 12:14:28;;;;;;;4.88;2.80;;;29.20;90.40;;;;;;5094913;28;20381;-75
2022/05/18 12:17:23;;;;;;;9.45;3.00;;;29.40;91.20;;;;;;5095618;28;20409;-75
2022/05/18 12:20:12;;;;;;;5.45;3.08;;;29.30;90.80;;;;;;5094704;28;20488;-75
2022/05/18 12:22:43;;;;;;;6.60;3.33;;;29.00;90.80;;;;;;5095016;28;20024;-75
2022/05/18 12:25:12;;;;;;;10.38;3.55;;;28.80;90.40;;;;;;5094573;28;20533;-75
2022/05/18 12:27:39;;;;;;;8.20;2.60;;;29.10;91.00;;;;;;5094879;28;20069;-75
2022/05/18 12:30:13;;;;;;;9.18;2.90;;;29.50;90.70;;;;;;5094687;28;20035;-75
2022/05/18 12:32:39;;;;;;;6.50;3.60;;;29.50;90.50;;;;;;5076472;28;20031;-74
2022/05/18 12:35:28;;;;;;;9.43;3.45;;;28.90;90.60;;;;;;5094643;28;20016;-75
2022/05/18 12:38:20;;;;;;;13.90;3.10;;;29.10;91.40;;;;;;5092421;28;20043;-75
2022/05/18 12:41:13;;;;;;;8.63;2.80;;;28.90;91.00;;;;;;5094452;28;20109;-75
2022/05/18 12:44:08;;;;;;;9.77;2.78;;;29.10;90.60;;;;;;5093525;28;20205;-75
2022/05/18 12:46:57;;;;;;;3.50;2.38;;;29.60;90.10;;;;;;5091995;28;20039;-75
2022/05/18 12:49:28;;;;;;;8.27;3.03;;;29.90;90.10;;;;;;5074275;28;20082;-76
2022/05/18 12:51:59;;;;;;;11.32;3.15;;;29.60;89.50;;;;;;5074276;28;20491;-75
2022/05/18 12:54:29;;;;;;;10.88;2.85;;;29.50;89.80;;;;;;5074047;28;20025;-75
2022/05/18 12:57:07;;;;;;;16.57;3.13;;;29.50;90.60;;;;;;5074186;28;20031;-75
2022/05/18 13:00:27;;;;;;;7.65;3.17;;;29.40;89.60;;;;;;5072586;28;20290;-75
2022/05/18 13:03:00;;;;;;;11.07;3.25;;;29.10;90.10;;;;;;5076854;28;20027;-76
2022/05/18 13:05:26;;;;;;;12.27;4.90;;;29.30;88.80;;;;;;5093832;28;20472;-75
2022/05/18 13:08:14;;;;;;;8.70;3.25;;;29.20;89.80;;;;;;5092587;28;20036;-76
2022/05/18 13:10:40;;;;;;;12.73;3.63;;;29.00;89.30;;;;;;5093545;28;20492;-75
2022/05/18 13:13:24;;;;;;;8.13;2.95;;;29.60;89.00;;;;;;5094003;28;20484;-76
2022/05/18 13:15:59;;;;;;;9.32;3.15;;;30.60;89.40;;;;;;5093972;28;20036;-76
2022/05/18 13:18:37;;;;;;;7.88;2.97;;;31.50;87.50;;;;;;5093766;28;20048;-76